createdAt,value
2022-11-29T00:01:43.877Z,38.75
2022-11-29T00:04:12.619Z,31.75
2022-11-29T00:06:41.487Z,30.45
2022-11-29T00:09:13.484Z,29.58
2022-11-29T00:12:00.623Z,29.88
2022-11-29T00:14:29.822Z,28.58
2022-11-29T00:17:02.684Z,27.60
2022-11-29T00:19:32.250Z,27.63
2022-11-29T00:22:01.146Z,29.48
2022-11-29T00:24:31.748Z,29.30
2022-11-29T00:27:01.287Z,27.70
2022-11-29T00:29:31.252Z,29.80
2022-11-29T00:32:01.622Z,31.00
2022-11-29T00:34:30.517Z,28.63
2022-11-29T00:36:59.131Z,28.60
2022-11-29T00:39:27.996Z,28.85
2022-11-29T00:41:56.524Z,27.13
2022-11-29T00:44:25.119Z,30.15
2022-11-29T00:46:53.697Z,28.67
2022-11-29T00:49:23.658Z,29.75
2022-11-29T00:51:52.325Z,29.50
2022-11-29T00:54:20.888Z,28.98
2022-11-29T00:56:49.481Z,28.85
2022-11-29T00:59:18.010Z,30.25
2022-11-29T01:01:46.693Z,27.40
2022-11-29T01:04:15.308Z,30.52
2022-11-29T01:06:45.785Z,27.88
2022-11-29T01:09:14.348Z,30.63
2022-11-29T01:11:42.873Z,31.45
2022-11-29T01:14:13.284Z,32.17
2022-11-29T01:16:41.914Z,32.22
2022-11-29T01:19:10.732Z,32.05
2022-11-29T01:21:39.357Z,31.08
2022-11-29T01:24:09.428Z,31.02
2022-11-29T01:26:37.948Z,30.30
2022-11-29T01:29:06.381Z,32.97
2022-11-29T01:31:36.735Z,32.55
2022-11-29T01:34:08.066Z,33.38
2022-11-29T01:36:37.063Z,33.10
2022-11-29T01:39:08.267Z,34.17
2022-11-29T01:41:38.685Z,32.55
2022-11-29T01:44:28.546Z,44.07
2022-11-29T01:46:59.183Z,46.17
2022-11-29T01:49:31.682Z,45.28
2022-11-29T01:52:04.079Z,44.45
2022-11-29T01:54:36.119Z,44.00
2022-11-29T01:57:07.102Z,43.90
2022-11-29T01:59:37.698Z,44.00
2022-11-29T02:02:13.421Z,43.85
2022-11-29T02:04:44.855Z,43.70
2022-11-29T02:07:14.460Z,44.65
2022-11-29T02:09:43.282Z,42.97
2022-11-29T02:12:23.724Z,43.45
2022-11-29T02:15:08.149Z,42.65
2022-11-29T02:17:52.652Z,43.47
2022-11-29T02:20:58.623Z,43.00
2022-11-29T02:23:53.069Z,43.13
2022-11-29T02:26:35.956Z,42.85
2022-11-29T02:29:31.259Z,43.00
2022-11-29T02:32:30.705Z,43.17
2022-11-29T02:35:16.616Z,43.00
2022-11-29T02:38:06.065Z,43.35
2022-11-29T02:40:56.139Z,42.25
2022-11-29T02:43:38.024Z,43.38
2022-11-29T02:46:21.668Z,42.60
2022-11-29T02:49:02.199Z,42.78
2022-11-29T02:51:40.673Z,42.25
2022-11-29T02:54:17.552Z,42.80
2022-11-29T02:56:53.252Z,42.07
2022-11-29T02:59:46.994Z,43.15
2022-11-29T03:02:24.606Z,42.85
2022-11-29T03:05:01.137Z,41.53
2022-11-29T03:07:40.638Z,42.92
2022-11-29T03:10:19.266Z,42.28
2022-11-29T03:12:50.644Z,43.43
2022-11-29T03:15:28.771Z,41.20
2022-11-29T03:18:04.712Z,42.17
2022-11-29T03:20:46.537Z,40.90
2022-11-29T03:23:23.295Z,41.67
2022-11-29T03:25:58.614Z,40.70
2022-11-29T03:28:32.448Z,41.15
2022-11-29T03:31:11.370Z,41.95
2022-11-29T03:33:49.402Z,41.70
2022-11-29T03:36:25.178Z,41.70
2022-11-29T03:38:59.827Z,41.08
2022-11-29T03:41:34.001Z,40.90
2022-11-29T03:44:12.122Z,40.88
2022-11-29T03:46:49.022Z,42.92
2022-11-29T03:49:24.879Z,41.83
2022-11-29T03:52:04.989Z,41.22
2022-11-29T03:54:47.941Z,40.33
2022-11-29T03:57:22.204Z,40.65
2022-11-29T04:00:02.987Z,41.38
2022-11-29T04:03:00.963Z,40.30
2022-11-29T04:05:55.769Z,40.47
2022-11-29T04:09:12.997Z,40.28
2022-11-29T04:12:35.302Z,39.42
2022-11-29T04:15:39.938Z,40.53
2022-11-29T04:18:34.438Z,38.78
2022-11-29T04:21:24.339Z,39.65
2022-11-29T04:24:22.532Z,40.28
2022-11-29T04:27:21.773Z,39.67
2022-11-29T04:30:05.490Z,40.25
2022-11-29T04:33:02.881Z,40.08
2022-11-29T04:35:43.275Z,39.83
2022-11-29T04:38:27.528Z,40.38
2022-11-29T04:41:23.070Z,39.97
2022-11-29T04:44:10.791Z,41.80
2022-11-29T04:47:14.402Z,40.35
2022-11-29T04:50:12.304Z,40.42
2022-11-29T04:53:26.746Z,40.20
2022-11-29T04:56:06.950Z,40.08
2022-11-29T04:58:40.897Z,39.90
2022-11-29T05:01:19.842Z,40.72
2022-11-29T05:03:57.362Z,40.43
2022-11-29T05:06:33.829Z,41.42
2022-11-29T05:09:15.019Z,40.78
2022-11-29T05:11:57.064Z,41.33
2022-11-29T05:14:37.220Z,41.03
2022-11-29T05:17:39.793Z,41.00
2022-11-29T05:20:28.353Z,41.70
2022-11-29T05:23:13.323Z,43.20
2022-11-29T05:25:46.628Z,43.40
2022-11-29T05:28:25.597Z,42.70
2022-11-29T05:31:25.160Z,41.33
2022-11-29T05:34:20.320Z,41.78
2022-11-29T05:36:57.202Z,42.97
2022-11-29T05:39:42.394Z,45.10
2022-11-29T05:42:29.867Z,42.53
2022-11-29T05:45:04.897Z,41.38
2022-11-29T05:47:38.518Z,42.22
2022-11-29T05:50:16.265Z,42.03
2022-11-29T05:52:52.043Z,42.15
2022-11-29T05:55:33.243Z,46.03
2022-11-29T05:58:05.854Z,44.75
2022-11-29T06:00:44.673Z,43.17
2022-11-29T06:03:21.029Z,42.20
2022-11-29T06:05:56.831Z,42.07
2022-11-29T06:08:36.532Z,43.13
2022-11-29T06:11:10.284Z,42.85
2022-11-29T06:13:51.232Z,43.63
2022-11-29T06:16:40.070Z,42.77
2022-11-29T06:19:43.986Z,44.13
2022-11-29T06:22:41.305Z,43.67
2022-11-29T06:25:22.436Z,43.23
2022-11-29T06:28:04.457Z,43.43
2022-11-29T06:30:49.045Z,44.67
2022-11-29T06:33:24.014Z,43.50
2022-11-29T06:36:08.615Z,43.95
2022-11-29T06:38:41.625Z,44.55
2022-11-29T06:41:15.472Z,44.55
2022-11-29T06:43:46.531Z,44.63
2022-11-29T06:46:24.341Z,45.22
2022-11-29T06:49:02.079Z,45.83
2022-11-29T06:51:38.446Z,43.95
2022-11-29T06:54:20.770Z,44.07
2022-11-29T06:56:56.895Z,44.78
2022-11-29T06:59:40.316Z,45.50
2022-11-29T07:02:29.336Z,44.88
2022-11-29T07:05:11.235Z,45.38
2022-11-29T07:07:40.825Z,44.90
2022-11-29T07:10:17.094Z,46.25
2022-11-29T07:12:46.427Z,44.60
2022-11-29T07:15:18.348Z,45.22
2022-11-29T07:18:11.079Z,46.75
2022-11-29T07:20:49.928Z,44.78
2022-11-29T07:23:29.888Z,44.42
2022-11-29T07:26:09.852Z,45.88
2022-11-29T07:28:49.842Z,45.40
2022-11-29T07:31:26.212Z,45.33
2022-11-29T07:34:05.591Z,46.90
2022-11-29T07:36:42.341Z,46.50
2022-11-29T07:39:23.620Z,46.45
2022-11-29T07:42:01.630Z,46.80
2022-11-29T07:44:37.298Z,46.15
2022-11-29T07:47:05.933Z,45.67
2022-11-29T07:49:34.478Z,47.05
2022-11-29T07:52:03.095Z,46.45
2022-11-29T07:54:32.193Z,47.65
2022-11-29T07:57:02.151Z,45.75
2022-11-29T07:59:30.776Z,47.08
2022-11-29T08:01:59.563Z,47.42
2022-11-29T08:04:28.130Z,46.10
2022-11-29T08:07:00.523Z,47.67
2022-11-29T08:09:29.023Z,46.42
2022-11-29T08:11:57.543Z,46.65
2022-11-29T08:14:27.691Z,46.47
2022-11-29T08:16:56.171Z,46.83
2022-11-29T08:19:24.618Z,47.13
2022-11-29T08:21:53.236Z,47.50
2022-11-29T08:24:21.807Z,47.85
2022-11-29T08:26:50.766Z,47.80
2022-11-29T08:29:19.486Z,47.30
2022-11-29T08:31:53.633Z,47.28
2022-11-29T08:34:22.286Z,48.00
2022-11-29T08:36:51.046Z,47.20
2022-11-29T08:39:19.597Z,48.00
2022-11-29T08:41:48.132Z,48.22
2022-11-29T08:44:16.899Z,46.40
2022-11-29T08:47:03.341Z,48.13
2022-11-29T08:49:33.287Z,46.88
2022-11-29T08:52:15.574Z,47.58
2022-11-29T08:54:44.599Z,46.22
2022-11-29T09:00:01.911Z,47.72
2022-11-29T09:02:30.430Z,47.87
2022-11-29T09:05:00.420Z,48.33
2022-11-29T09:07:28.957Z,47.63
2022-11-29T09:10:01.132Z,49.40
2022-11-29T09:12:29.586Z,46.90
2022-11-29T09:14:58.163Z,48.08
2022-11-29T09:17:26.664Z,44.92
2022-11-29T09:19:55.184Z,45.90
2022-11-29T09:22:25.148Z,47.17
2022-11-29T09:24:53.723Z,46.37
2022-11-29T09:27:22.313Z,46.92
2022-11-29T09:29:50.729Z,47.00
2022-11-29T09:32:19.266Z,51.90
2022-11-29T09:34:48.337Z,46.40
2022-11-29T09:37:16.963Z,48.28
2022-11-29T09:39:46.868Z,47.40
2022-11-29T09:42:36.232Z,46.42
2022-11-29T09:45:08.181Z,45.47
2022-11-29T09:48:00.663Z,45.08
2022-11-29T09:50:34.642Z,45.72
2022-11-29T09:53:24.013Z,46.80
2022-11-29T09:56:03.675Z,45.70
2022-11-29T09:58:40.807Z,46.65
2022-11-29T10:01:14.571Z,45.80
2022-11-29T10:03:46.862Z,45.30
2022-11-29T10:06:20.669Z,44.60
2022-11-29T10:08:55.494Z,45.85
2022-11-29T10:11:30.004Z,47.55
2022-11-29T10:14:04.154Z,45.53
2022-11-29T10:16:42.460Z,44.47
2022-11-29T10:19:20.893Z,46.23
2022-11-29T10:21:57.234Z,46.28
2022-11-29T10:24:28.305Z,46.65
2022-11-29T10:26:58.519Z,47.90
2022-11-29T10:29:27.316Z,46.25
2022-11-29T10:31:56.974Z,46.90
2022-11-29T10:34:27.200Z,46.63
2022-11-29T10:36:59.591Z,46.37
2022-11-29T10:39:42.258Z,46.80
2022-11-29T10:42:31.854Z,40.38
2022-11-29T10:45:01.415Z,36.20
2022-11-29T10:47:30.026Z,35.28
2022-11-29T10:49:59.413Z,35.85
2022-11-29T10:52:27.822Z,36.72
2022-11-29T10:54:59.907Z,36.63
2022-11-29T10:57:29.861Z,37.35
2022-11-29T11:00:04.006Z,37.10
2022-11-29T11:02:33.294Z,36.63
2022-11-29T11:05:02.487Z,35.80
2022-11-29T11:07:35.254Z,34.97
2022-11-29T11:10:18.567Z,36.53
2022-11-29T11:13:03.074Z,36.73
2022-11-29T11:15:33.181Z,36.22
2022-11-29T11:18:04.856Z,35.88
2022-11-29T11:20:36.245Z,35.33
2022-11-29T11:23:06.900Z,35.22
2022-11-29T11:25:38.226Z,34.97
2022-11-29T11:28:20.980Z,36.55
2022-11-29T11:30:54.212Z,35.85
2022-11-29T11:33:27.321Z,38.50
2022-11-29T11:36:05.813Z,36.13
2022-11-29T11:38:39.064Z,37.88
2022-11-29T11:41:20.497Z,37.42
2022-11-29T11:43:57.762Z,36.00
2022-11-29T11:46:47.493Z,35.75
2022-11-29T11:49:25.564Z,36.30
2022-11-29T11:51:54.210Z,36.95
